Time;durP1;ratioP1;P1;durP2;ratioP2;P2;SDS_P1;SDS_P2;PMS_P1;PMS_P2;Temp;Humidity;BMP_temperature;BMP_pressure;BME280_temperature;BME280_humidity;BME280_pressure;Samples;Min_cycle;Max_cycle;Signal;HPM_P1;HPM_P2
2022/04/01 00:00:54;;;;;;;14.37;12.83;;;3.00;99.90;;;;;;5048890;28;20210;-52
2022/04/01 00:03:23;;;;;;;14.97;13.47;;;3.00;99.90;;;;;;5050048;28;20656;-52
2022/04/01 00:05:51;;;;;;;14.60;13.10;;;3.00;99.90;;;;;;5050352;28;20209;-52
2022/04/01 00:08:19;;;;;;;13.53;12.23;;;2.90;99.90;;;;;;5050666;28;20219;-52
2022/04/01 00:10:48;;;;;;;13.53;11.97;;;2.90;99.90;;;;;;5051187;28;20230;-52
2022/04/01 00:13:16;;;;;;;14.10;12.70;;;2.90;99.90;;;;;;5050810;28;20205;-52
2022/04/01 00:15:44;;;;;;;13.23;11.83;;;2.90;99.90;;;;;;5051169;28;20255;-52
2022/04/01 00:18:13;;;;;;;14.30;12.80;;;2.90;99.90;;;;;;5051395;28;20251;-52
2022/04/01 00:20:42;;;;;;;13.77;12.27;;;2.90;99.90;;;;;;5050732;28;20223;-53
2022/04/01 00:23:14;;;;;;;13.40;12.07;;;2.90;99.90;;;;;;5050603;28;20205;-52
2022/04/01 00:25:49;;;;;;;12.93;11.63;;;2.90;99.90;;;;;;5051679;28;20186;-52
2022/04/01 00:28:19;;;;;;;13.90;12.50;;;2.90;99.90;;;;;;5051092;28;20225;-52
2022/04/01 00:30:47;;;;;;;14.33;12.20;;;2.90;99.90;;;;;;5050905;28;20665;-52
2022/04/01 00:33:18;;;;;;;14.03;12.53;;;2.90;99.90;;;;;;5049571;28;20214;-52
2022/04/01 00:35:48;;;;;;;13.80;12.27;;;2.70;99.90;;;;;;5051063;28;20760;-52
2022/04/01 00:38:28;;;;;;;13.50;12.10;;;2.80;99.90;;;;;;5052421;28;20203;-51
2022/04/01 00:41:03;;;;;;;13.17;11.87;;;2.90;99.90;;;;;;5057837;28;20217;-52
2022/04/01 00:43:35;;;;;;;12.87;11.57;;;2.80;99.90;;;;;;5055574;28;20696;-52
2022/04/01 00:46:04;;;;;;;13.87;12.13;;;2.90;99.90;;;;;;5055848;28;20236;-52
2022/04/01 00:48:34;;;;;;;13.40;11.70;;;2.80;99.90;;;;;;5054442;28;20229;-52
2022/04/01 00:51:02;;;;;;;14.27;12.33;;;2.80;99.90;;;;;;5054810;28;20259;-52
2022/04/01 00:53:30;;;;;;;13.67;11.43;;;2.70;99.90;;;;;;5054061;28;20259;-52
2022/04/01 00:55:59;;;;;;;12.40;11.13;;;2.70;99.90;;;;;;5054640;28;20210;-53
2022/04/01 00:58:28;;;;;;;13.33;11.93;;;2.80;99.90;;;;;;5053031;28;20271;-53
2022/04/01 01:00:56;;;;;;;13.60;11.27;;;2.80;99.90;;;;;;5054221;28;20259;-53
2022/04/01 01:03:24;;;;;;;12.77;11.17;;;2.90;99.90;;;;;;5054068;28;20273;-53
2022/04/01 01:05:54;;;;;;;12.13;10.63;;;2.80;99.90;;;;;;5054320;28;20205;-53
2022/04/01 01:08:22;;;;;;;11.70;10.50;;;2.80;99.90;;;;;;5053992;28;20750;-53
2022/04/01 01:10:50;;;;;;;12.90;11.00;;;2.80;99.90;;;;;;5054395;28;20202;-53
2022/04/01 01:13:18;;;;;;;12.83;11.33;;;2.80;99.90;;;;;;5053768;28;20215;-53
2022/04/01 01:15:47;;;;;;;13.77;11.97;;;2.80;99.90;;;;;;5054525;28;20251;-53
2022/04/01 01:18:17;;;;;;;14.60;11.77;;;2.70;99.90;;;;;;5054092;28;20297;-53
2022/04/01 01:20:45;;;;;;;13.83;11.63;;;2.80;99.90;;;;;;5054169;28;20229;-52
2022/04/01 01:23:14;;;;;;;14.57;12.07;;;2.70;99.90;;;;;;5053247;28;20754;-52
2022/04/01 01:25:45;;;;;;;15.40;12.07;;;2.80;99.90;;;;;;5054393;28;20207;-53
2022/04/01 01:28:13;;;;;;;14.40;12.37;;;2.80;99.90;;;;;;5053516;28;20209;-52
2022/04/01 01:30:42;;;;;;;13.73;11.90;;;2.80;99.90;;;;;;5053761;28;20662;-52
2022/04/01 01:33:11;;;;;;;15.10;12.73;;;2.80;99.90;;;;;;5051676;28;20577;-52
2022/04/01 01:35:39;;;;;;;13.93;12.00;;;2.80;99.90;;;;;;5052082;28;20213;-52
2022/04/01 01:38:08;;;;;;;14.80;12.23;;;2.80;99.90;;;;;;5052558;28;20631;-52
2022/04/01 01:40:37;;;;;;;14.67;12.47;;;2.70;99.90;;;;;;5031785;28;20597;-52
2022/04/01 01:43:06;;;;;;;14.60;12.03;;;2.80;99.90;;;;;;5046176;28;20220;-52
2022/04/01 01:45:35;;;;;;;15.13;12.80;;;2.80;99.90;;;;;;5051695;28;20296;-52
2022/04/01 01:48:04;;;;;;;14.07;12.00;;;2.70;99.90;;;;;;5051754;28;20205;-52
2022/04/01 01:56:18;;;;;;;14.57;11.30;;;2.60;99.90;;;;;;5009884;28;20199;-52
2022/04/01 01:58:48;;;;;;;15.10;12.57;;;2.60;99.90;;;;;;5032673;28;20226;-52
2022/04/01 02:01:16;;;;;;;15.47;12.07;;;2.60;99.90;;;;;;5051994;28;20214;-52
2022/04/01 02:03:44;;;;;;;16.10;13.03;;;2.60;99.90;;;;;;5051728;28;20254;-51
2022/04/01 02:06:13;;;;;;;15.77;12.90;;;2.60;99.90;;;;;;5051997;28;20719;-52
2022/04/01 02:08:41;;;;;;;14.70;12.27;;;2.60;99.90;;;;;;5051899;28;20201;-52
2022/04/01 02:11:09;;;;;;;14.67;11.83;;;2.60;99.90;;;;;;5051645;28;20211;-52
2022/04/01 02:13:38;;;;;;;15.53;11.80;;;2.60;99.90;;;;;;5051134;28;20263;-52
2022/04/01 02:16:07;;;;;;;14.60;12.63;;;2.60;99.90;;;;;;5051983;28;20212;-52
2022/04/01 02:18:35;;;;;;;13.43;11.37;;;2.60;99.90;;;;;;5051766;28;20259;-52
2022/04/01 02:21:10;;;;;;;12.53;10.63;;;2.60;99.90;;;;;;5051218;28;20205;-52
2022/04/01 02:23:39;;;;;;;14.27;10.83;;;2.50;99.90;;;;;;5051354;28;20283;-52
2022/04/01 02:26:08;;;;;;;12.77;11.27;;;2.40;99.90;;;;;;5051346;28;20259;-52
2022/04/01 02:28:36;;;;;;;13.57;11.03;;;2.40;99.90;;;;;;5051705;28;20210;-52
2022/04/01 02:31:08;;;;;;;10.67;9.00;;;2.40;99.90;;;;;;5012976;28;1122132;-52
2022/04/01 02:33:37;;;;;;;12.90;10.87;;;2.40;99.90;;;;;;5052094;28;20303;-52
2022/04/01 02:36:10;;;;;;;11.60;9.70;;;2.50;99.90;;;;;;5052639;28;20227;-52
2022/04/01 02:38:40;;;;;;;11.67;10.47;;;2.50;99.90;;;;;;5052823;28;20198;-52
2022/04/01 02:41:11;;;;;;;11.90;10.17;;;2.50;99.90;;;;;;5052816;28;20262;-52
2022/04/01 02:43:40;;;;;;;13.37;9.27;;;2.40;99.90;;;;;;5051674;28;20261;-52
2022/04/01 02:46:10;;;;;;;12.70;11.03;;;2.40;99.90;;;;;;5052184;28;20857;-52
2022/04/01 02:48:38;;;;;;;13.00;10.57;;;2.40;99.90;;;;;;5052272;28;20664;-52
2022/04/01 02:51:06;;;;;;;14.23;10.20;;;2.30;99.90;;;;;;5038845;28;20236;-52
2022/04/01 02:53:34;;;;;;;12.87;10.70;;;2.30;99.90;;;;;;5031993;28;20210;-51
2022/04/01 02:56:03;;;;;;;12.30;11.00;;;2.30;99.90;;;;;;5032373;28;20202;-52
2022/04/01 02:58:31;;;;;;;14.47;10.70;;;2.20;99.90;;;;;;5031820;28;20199;-52
2022/04/01 03:00:59;;;;;;;11.33;10.13;;;2.20;99.90;;;;;;5050380;28;20272;-52
2022/04/01 03:03:29;;;;;;;11.60;10.07;;;2.30;99.90;;;;;;5051499;28;20307;-52
2022/04/01 03:05:57;;;;;;;14.27;10.87;;;2.30;99.90;;;;;;5051418;28;20214;-52
2022/04/01 03:08:26;;;;;;;13.57;10.77;;;2.30;99.90;;;;;;5052266;28;20267;-52
2022/04/01 03:10:57;;;;;;;14.50;10.57;;;2.30;99.90;;;;;;5051545;28;20222;-52
2022/04/01 03:13:30;;;;;;;12.63;10.70;;;2.30;99.90;;;;;;5052037;28;20193;-52
2022/04/01 03:15:58;;;;;;;12.07;10.63;;;2.30;99.90;;;;;;5051608;28;20251;-52
2022/04/01 03:18:26;;;;;;;12.07;10.73;;;2.40;99.90;;;;;;5052136;28;20694;-52
2022/04/01 03:20:56;;;;;;;14.93;11.63;;;2.40;99.90;;;;;;5031510;28;20667;-51
2022/04/01 03:23:24;;;;;;;13.37;10.60;;;2.30;99.90;;;;;;5031139;28;20749;-52
2022/04/01 03:25:54;;;;;;;12.07;10.80;;;2.30;99.90;;;;;;5031702;28;20231;-52
2022/04/01 03:28:23;;;;;;;12.93;10.93;;;2.30;99.90;;;;;;5032680;28;20211;-51
2022/04/01 03:30:51;;;;;;;11.60;10.13;;;2.40;99.90;;;;;;5031378;28;20703;-52
2022/04/01 03:33:20;;;;;;;12.07;10.97;;;2.30;99.90;;;;;;5031706;28;20736;-52
2022/04/01 03:35:48;;;;;;;13.33;11.20;;;2.40;99.90;;;;;;5042281;28;20220;-51
2022/04/01 03:38:17;;;;;;;13.97;10.90;;;2.40;99.90;;;;;;5050708;28;20205;-52
2022/04/01 03:40:50;;;;;;;14.43;11.50;;;2.30;99.90;;;;;;5031832;28;20223;-52
2022/04/01 03:43:20;;;;;;;14.20;10.93;;;2.30;99.90;;;;;;5031276;28;20191;-52
2022/04/01 03:45:49;;;;;;;15.57;10.93;;;2.30;99.90;;;;;;5045914;28;20209;-52
2022/04/01 03:48:24;;;;;;;12.33;11.03;;;2.30;99.90;;;;;;5051384;28;20311;-52
2022/04/01 03:50:56;;;;;;;14.13;12.00;;;2.20;99.90;;;;;;5051425;28;20295;-52
2022/04/01 03:53:28;;;;;;;12.43;11.13;;;2.20;99.90;;;;;;5050917;28;20187;-52
2022/04/01 03:55:57;;;;;;;13.80;11.43;;;2.20;99.90;;;;;;5051377;28;20205;-52
2022/04/01 03:58:30;;;;;;;15.57;12.20;;;2.20;99.90;;;;;;5049975;28;20206;-52
2022/04/01 04:01:00;;;;;;;13.70;11.17;;;2.20;99.90;;;;;;5051021;28;20206;-52
2022/04/01 04:03:30;;;;;;;14.33;12.03;;;2.20;99.90;;;;;;5051365;28;20610;-52
2022/04/01 04:06:00;;;;;;;12.47;11.13;;;2.10;99.90;;;;;;5050194;28;20559;-52
2022/04/01 04:08:30;;;;;;;11.80;10.53;;;2.10;99.90;;;;;;5050315;28;20205;-52
2022/04/01 04:10:59;;;;;;;12.47;11.00;;;2.20;99.90;;;;;;5050976;28;20229;-52
2022/04/01 04:13:27;;;;;;;12.67;9.70;;;2.20;99.90;;;;;;5050483;28;20216;-52
2022/04/01 04:16:05;;;;;;;12.23;10.13;;;2.10;99.90;;;;;;5051050;28;20562;-52
2022/04/01 04:18:42;;;;;;;11.73;10.23;;;2.10;99.90;;;;;;5050950;28;20236;-52
2022/04/01 04:21:12;;;;;;;12.50;10.70;;;2.10;99.90;;;;;;5051169;28;20205;-52
2022/04/01 04:23:46;;;;;;;11.60;10.30;;;2.10;99.90;;;;;;5050373;28;20267;-52
2022/04/01 04:26:17;;;;;;;11.20;9.83;;;2.10;99.90;;;;;;5050951;28;20241;-52
2022/04/01 04:28:50;;;;;;;12.37;10.43;;;2.10;99.90;;;;;;5050623;28;20205;-52
2022/04/01 04:31:27;;;;;;;13.03;10.57;;;2.10;99.90;;;;;;5050485;28;20716;-52
2022/04/01 04:33:57;;;;;;;13.63;10.23;;;2.10;99.90;;;;;;5050408;28;20209;-52
2022/04/01 04:36:38;;;;;;;10.87;9.73;;;2.10;99.90;;;;;;5050950;28;20225;-52
2022/04/01 04:39:09;;;;;;;10.80;9.70;;;2.10;99.90;;;;;;5050742;28;20224;-52
2022/04/01 04:41:38;;;;;;;11.90;10.07;;;2.10;99.90;;;;;;5050609;28;20344;-52
2022/04/01 04:44:06;;;;;;;12.43;10.03;;;2.00;99.90;;;;;;5050467;28;20266;-52
2022/04/01 04:46:36;;;;;;;11.07;9.53;;;2.00;99.90;;;;;;5050875;28;20283;-52
2022/04/01 04:49:04;;;;;;;12.13;10.47;;;2.00;99.90;;;;;;5050831;28;20221;-52
2022/04/01 04:51:33;;;;;;;11.57;10.13;;;2.00;99.90;;;;;;5050438;28;20223;-52
2022/04/01 04:54:03;;;;;;;11.50;10.30;;;1.90;99.90;;;;;;5050114;28;20258;-52
2022/04/01 04:56:33;;;;;;;13.87;10.50;;;1.90;99.90;;;;;;5050530;28;20209;-52
2022/04/01 04:59:03;;;;;;;13.27;10.30;;;2.00;99.90;;;;;;5049308;28;20230;-52
2022/04/01 05:01:38;;;;;;;12.37;10.70;;;2.00;99.90;;;;;;5050467;28;20262;-52
2022/04/01 05:04:32;;;;;;;11.20;10.10;;;2.00;99.90;;;;;;5050526;28;20196;-52
2022/04/01 05:07:11;;;;;;;10.50;9.43;;;2.00;99.90;;;;;;5049976;28;20213;-52
2022/04/01 05:09:46;;;;;;;11.53;10.00;;;2.00;99.90;;;;;;5050452;28;20224;-51
2022/04/01 05:12:26;;;;;;;13.30;10.23;;;2.00;99.90;;;;;;5049740;28;20223;-52
2022/04/01 05:15:05;;;;;;;12.03;9.80;;;2.00;99.90;;;;;;5050102;28;20243;-52
2022/04/01 05:17:36;;;;;;;13.33;10.73;;;2.00;99.90;;;;;;5050068;28;20258;-52
2022/04/01 05:20:11;;;;;;;11.47;10.27;;;1.90;99.90;;;;;;5050572;28;20232;-51
2022/04/01 05:22:48;;;;;;;11.43;9.87;;;2.00;99.90;;;;;;5050106;28;20287;-52
2022/04/01 05:25:20;;;;;;;11.40;10.20;;;2.00;99.90;;;;;;5052042;28;20208;-52
2022/04/01 05:27:52;;;;;;;11.53;9.93;;;2.00;99.90;;;;;;5054127;28;20727;-52
2022/04/01 05:30:25;;;;;;;10.13;9.10;;;2.10;99.90;;;;;;5053715;28;20283;-52
2022/04/01 05:33:02;;;;;;;11.20;9.37;;;2.10;99.90;;;;;;5053707;28;20220;-52
2022/04/01 05:35:33;;;;;;;10.10;9.10;;;2.00;99.90;;;;;;5053525;28;20255;-52
2022/04/01 05:38:01;;;;;;;10.33;9.10;;;2.10;99.90;;;;;;5054008;28;20197;-52
2022/04/01 05:40:30;;;;;;;10.10;9.10;;;2.10;99.90;;;;;;5034509;28;20233;-52
2022/04/01 05:43:01;;;;;;;11.13;8.57;;;2.10;99.90;;;;;;5033437;28;20206;-52
2022/04/01 05:45:30;;;;;;;10.67;8.93;;;2.10;99.90;;;;;;5033670;28;20260;-52
2022/04/01 05:47:59;;;;;;;10.00;9.00;;;2.10;99.90;;;;;;5033810;28;20213;-51
2022/04/01 05:50:28;;;;;;;9.37;8.43;;;2.00;99.90;;;;;;5033723;28;20231;-52
2022/04/01 05:52:56;;;;;;;9.97;8.97;;;2.00;99.90;;;;;;5032772;28;20614;-52
2022/04/01 05:55:26;;;;;;;13.63;8.93;;;1.90;99.90;;;;;;5033637;28;20202;-51
2022/04/01 05:57:55;;;;;;;9.37;8.37;;;1.90;99.90;;;;;;5032461;28;20240;-52
2022/04/01 06:00:25;;;;;;;9.23;8.27;;;1.90;99.90;;;;;;5047417;28;20224;-52
2022/04/01 06:03:18;;;;;;;8.93;8.03;;;1.80;99.90;;;;;;5052784;28;20197;-51
2022/04/01 06:05:51;;;;;;;9.10;8.13;;;1.90;99.90;;;;;;5053588;28;20193;-52
2022/04/01 06:08:25;;;;;;;9.33;8.27;;;1.90;99.90;;;;;;5052993;28;20275;-52
2022/04/01 06:11:03;;;;;;;8.90;8.00;;;2.00;99.90;;;;;;5053332;28;20196;-52
2022/04/01 06:13:47;;;;;;;10.30;8.53;;;2.00;99.90;;;;;;5052708;28;20204;-52
2022/04/01 06:16:28;;;;;;;9.20;8.20;;;2.00;99.90;;;;;;5053388;28;20235;-52
2022/04/01 06:19:03;;;;;;;8.70;7.90;;;2.00;99.90;;;;;;5053268;28;20243;-52
2022/04/01 06:21:37;;;;;;;7.63;6.43;;;2.00;99.90;;;;;;5053212;28;20254;-51
2022/04/01 06:24:11;;;;;;;8.67;7.80;;;2.10;99.90;;;;;;5052778;28;20192;-52
2022/04/01 06:26:42;;;;;;;8.80;7.77;;;2.00;99.90;;;;;;5052884;28;20208;-52
2022/04/01 06:29:37;;;;;;;9.10;8.20;;;2.00;99.90;;;;;;5053080;28;20225;-52
2022/04/01 06:32:13;;;;;;;8.37;7.50;;;2.00;99.90;;;;;;5052497;28;20223;-52
2022/04/01 06:35:07;;;;;;;8.70;7.80;;;2.10;99.90;;;;;;5052839;28;20806;-52
2022/04/01 06:37:46;;;;;;;8.80;7.90;;;2.10;99.90;;;;;;5050990;28;20238;-52
2022/04/01 06:40:14;;;;;;;8.00;7.20;;;2.10;99.90;;;;;;5052121;28;20224;-52
2022/04/01 06:42:45;;;;;;;7.90;7.10;;;2.10;99.90;;;;;;5051511;28;20198;-52
2022/04/01 06:45:15;;;;;;;8.83;7.80;;;2.00;99.90;;;;;;5052901;28;20688;-52
2022/04/01 06:47:45;;;;;;;8.77;7.60;;;2.10;99.90;;;;;;5052197;28;20213;-52
2022/04/01 06:50:16;;;;;;;8.13;7.30;;;2.10;99.90;;;;;;5052368;28;20262;-52
2022/04/01 06:52:45;;;;;;;8.00;7.20;;;2.10;99.90;;;;;;5051720;28;20229;-52
2022/04/01 06:55:14;;;;;;;7.63;6.90;;;2.10;99.90;;;;;;5052302;28;20301;-52
2022/04/01 06:57:42;;;;;;;9.37;8.23;;;2.10;99.90;;;;;;5051761;28;20212;-52
2022/04/01 07:00:13;;;;;;;7.07;6.27;;;2.10;99.90;;;;;;5050454;28;20227;-52
2022/04/01 07:02:42;;;;;;;6.70;6.10;;;2.20;99.90;;;;;;5051704;28;20204;-53
2022/04/01 07:05:12;;;;;;;7.30;6.60;;;2.20;99.90;;;;;;5052125;28;20267;-52
2022/04/01 07:07:41;;;;;;;7.47;6.70;;;2.20;99.90;;;;;;5052422;28;20257;-52
2022/04/01 07:10:11;;;;;;;7.30;6.60;;;2.20;99.90;;;;;;5052106;28;20340;-52
2022/04/01 07:12:40;;;;;;;7.07;6.37;;;2.20;99.90;;;;;;5051711;28;20299;-52
2022/04/01 07:15:10;;;;;;;6.67;6.00;;;2.30;99.90;;;;;;5051737;28;20205;-52
2022/04/01 07:17:39;;;;;;;6.70;6.10;;;2.30;99.90;;;;;;5052157;28;20212;-51
2022/04/01 07:20:13;;;;;;;7.00;6.30;;;2.40;99.90;;;;;;5051776;28;20785;-52
2022/04/01 07:22:51;;;;;;;6.60;6.00;;;2.30;99.90;;;;;;5051184;28;20194;-52
2022/04/01 07:25:21;;;;;;;6.87;6.00;;;2.40;99.90;;;;;;5052215;28;20193;-52
2022/04/01 07:27:49;;;;;;;6.60;6.00;;;2.50;99.90;;;;;;5051432;28;20205;-52
2022/04/01 07:30:17;;;;;;;6.10;5.50;;;2.50;99.90;;;;;;5051874;28;20232;-52
2022/04/01 07:32:46;;;;;;;6.63;6.00;;;2.60;99.90;;;;;;5033955;28;20636;-52
2022/04/01 07:35:16;;;;;;;7.17;5.60;;;2.50;99.90;;;;;;5032115;28;20218;-52
2022/04/01 07:37:45;;;;;;;6.00;5.40;;;2.60;99.90;;;;;;5031271;28;20260;-52
2022/04/01 07:40:22;;;;;;;6.23;5.40;;;2.60;99.90;;;;;;5049573;28;20233;-53
2022/04/01 07:42:51;;;;;;;6.70;6.10;;;2.60;99.90;;;;;;5050975;28;20206;-52
2022/04/01 07:45:20;;;;;;;5.87;5.37;;;2.50;99.90;;;;;;5050860;28;20205;-52
2022/04/01 07:47:50;;;;;;;6.47;5.27;;;2.60;99.90;;;;;;5050927;28;20209;-52
2022/04/01 07:50:22;;;;;;;6.10;5.50;;;2.60;99.90;;;;;;5050929;28;20714;-52
2022/04/01 07:52:51;;;;;;;6.70;6.00;;;2.40;99.90;;;;;;5050924;28;20229;-53
2022/04/01 07:55:19;;;;;;;7.87;5.17;;;2.50;99.90;;;;;;5051229;28;20215;-52
2022/04/01 07:57:50;;;;;;;7.03;5.90;;;2.50;99.90;;;;;;5050005;28;20202;-52
2022/04/01 08:00:38;;;;;;;6.87;5.60;;;2.40;99.90;;;;;;5050887;28;20250;-52
2022/04/01 08:03:06;;;;;;;6.27;5.63;;;2.40;99.90;;;;;;5050899;28;20251;-52
2022/04/01 08:05:37;;;;;;;6.47;4.87;;;2.50;99.90;;;;;;5051087;28;20205;-52
2022/04/01 08:08:06;;;;;;;7.67;5.50;;;2.60;99.90;;;;;;5051241;28;20205;-52
2022/04/01 08:10:35;;;;;;;5.93;5.33;;;2.50;99.90;;;;;;5050849;28;20230;-52
2022/04/01 08:13:04;;;;;;;7.53;5.23;;;2.50;99.90;;;;;;5050509;28;20228;-52
2022/04/01 08:15:33;;;;;;;5.77;5.17;;;2.70;99.90;;;;;;5051473;28;20259;-51
2022/04/01 08:18:01;;;;;;;5.50;5.00;;;2.60;99.90;;;;;;5051072;28;20239;-51
2022/04/01 08:20:30;;;;;;;6.17;5.50;;;2.60;99.90;;;;;;5050640;28;20714;-52
2022/04/01 08:22:59;;;;;;;6.47;5.87;;;2.60;99.90;;;;;;5049314;28;20224;-50
2022/04/01 08:25:27;;;;;;;6.37;5.77;;;2.70;99.90;;;;;;5051265;28;20213;-51
2022/04/01 08:28:03;;;;;;;6.80;5.63;;;2.70;99.90;;;;;;5033645;28;20199;-49
2022/04/01 08:30:32;;;;;;;7.10;6.30;;;2.80;99.90;;;;;;5042226;28;20290;-50
2022/04/01 08:33:00;;;;;;;6.70;6.00;;;2.70;99.90;;;;;;5050259;28;20228;-50
2022/04/01 08:35:29;;;;;;;6.90;6.20;;;2.70;99.90;;;;;;5049860;28;20261;-50
2022/04/01 08:37:58;;;;;;;6.97;6.33;;;2.90;99.90;;;;;;5051020;28;20258;-50
2022/04/01 08:40:29;;;;;;;7.87;7.17;;;2.80;99.90;;;;;;5031679;28;20280;-50
2022/04/01 08:42:57;;;;;;;7.53;6.60;;;2.80;99.90;;;;;;5030826;28;20202;-50
2022/04/01 08:45:26;;;;;;;7.00;6.40;;;2.70;99.90;;;;;;5030808;28;20202;-49
2022/04/01 08:47:56;;;;;;;7.27;6.57;;;2.80;99.90;;;;;;5030802;28;20205;-50
2022/04/01 08:50:25;;;;;;;7.00;6.40;;;2.80;99.90;;;;;;5045906;28;20278;-50
2022/04/01 08:52:53;;;;;;;7.10;6.50;;;2.70;99.90;;;;;;5050361;28;20623;-50
2022/04/01 08:55:22;;;;;;;7.03;6.33;;;2.80;99.90;;;;;;5051118;28;20232;-50
2022/04/01 08:57:51;;;;;;;7.63;6.83;;;2.90;99.90;;;;;;5051169;28;20210;-50
2022/04/01 09:00:35;;;;;;;7.20;6.50;;;3.00;99.90;;;;;;5052907;28;20218;-50
2022/04/01 09:03:06;;;;;;;7.47;5.97;;;3.10;99.90;;;;;;5054373;28;20205;-50
2022/04/01 09:05:35;;;;;;;7.87;7.10;;;3.20;99.90;;;;;;5055014;28;20186;-49
2022/04/01 09:08:04;;;;;;;7.80;7.10;;;3.20;99.90;;;;;;5054904;28;20611;-50
2022/04/01 09:10:51;;;;;;;8.07;6.13;;;3.10;99.90;;;;;;5054674;28;20271;-49
2022/04/01 09:13:20;;;;;;;8.73;7.80;;;3.20;99.90;;;;;;5054246;28;20774;-51
2022/04/01 09:15:48;;;;;;;7.93;7.23;;;3.20;99.90;;;;;;5053362;28;20208;-52
2022/04/01 09:18:38;;;;;;;8.33;7.17;;;3.30;99.90;;;;;;5035561;28;20208;-50
2022/04/01 09:21:08;;;;;;;7.80;7.10;;;3.30;99.90;;;;;;5034434;28;20269;-50
2022/04/01 09:23:37;;;;;;;7.10;6.40;;;3.20;99.90;;;;;;5034322;28;20207;-50
2022/04/01 09:26:07;;;;;;;6.93;6.20;;;3.40;99.90;;;;;;5033651;28;20267;-50
2022/04/01 09:28:40;;;;;;;7.23;6.60;;;3.20;99.90;;;;;;5034317;28;20238;-50
2022/04/01 09:31:10;;;;;;;7.40;6.70;;;3.30;99.90;;;;;;5036515;28;20222;-50
2022/04/01 09:33:59;;;;;;;8.40;7.40;;;3.40;99.90;;;;;;5033505;28;20611;-49
2022/04/01 09:36:33;;;;;;;7.83;7.03;;;3.30;99.90;;;;;;5034321;28;20233;-50
2022/04/01 09:39:03;;;;;;;8.03;7.23;;;3.30;99.90;;;;;;5040855;28;20221;-50
2022/04/01 09:41:36;;;;;;;8.87;7.93;;;3.30;99.90;;;;;;5054082;28;20251;-50
2022/04/01 09:44:26;;;;;;;7.70;6.90;;;3.10;99.90;;;;;;5053094;28;20204;-50
2022/04/01 09:46:56;;;;;;;8.20;7.40;;;2.80;99.90;;;;;;5053887;28;20264;-50
2022/04/01 09:49:33;;;;;;;7.83;7.03;;;2.80;99.90;;;;;;5053719;28;20257;-50
2022/04/01 09:52:06;;;;;;;8.63;7.83;;;2.70;99.90;;;;;;5053460;28;20624;-50
2022/04/01 09:54:34;;;;;;;9.13;7.70;;;2.60;99.90;;;;;;5052865;28;20227;-50
2022/04/01 09:57:06;;;;;;;10.40;8.70;;;2.60;99.90;;;;;;5037773;28;20206;-49
2022/04/01 09:59:36;;;;;;;8.80;7.90;;;2.50;99.90;;;;;;5040819;28;20226;-50
2022/04/01 10:02:04;;;;;;;9.50;8.60;;;2.60;99.90;;;;;;5052779;28;20261;-49
2022/04/01 10:04:33;;;;;;;8.63;7.73;;;2.50;99.90;;;;;;5053340;28;20258;-50
2022/04/01 10:07:04;;;;;;;9.17;8.27;;;2.40;99.90;;;;;;5053504;28;20205;-50
2022/04/01 10:09:32;;;;;;;8.53;7.63;;;2.40;99.90;;;;;;5053152;28;20285;-50
2022/04/01 10:12:26;;;;;;;8.67;7.87;;;2.40;99.90;;;;;;5052686;28;20198;-50
2022/04/01 10:14:58;;;;;;;8.17;7.37;;;2.40;99.90;;;;;;5035253;28;20231;-50
2022/04/01 10:17:47;;;;;;;8.83;8.03;;;2.50;99.90;;;;;;5032718;28;20240;-50
2022/04/01 10:20:18;;;;;;;9.47;8.53;;;2.40;99.90;;;;;;5035926;28;20687;-50
2022/04/01 10:22:47;;;;;;;9.10;8.20;;;2.40;99.90;;;;;;5072703;28;20669;-50
2022/04/01 10:25:17;;;;;;;8.67;7.77;;;2.40;99.90;;;;;;5072750;28;20725;-49
2022/04/01 10:27:51;;;;;;;8.73;7.83;;;2.60;99.90;;;;;;5072931;28;20669;-50
2022/04/01 10:30:24;;;;;;;8.30;7.50;;;2.60;99.90;;;;;;5072961;28;20629;-50
2022/04/01 10:32:53;;;;;;;9.07;8.20;;;2.70;99.90;;;;;;5072672;28;20278;-50
2022/04/01 10:35:23;;;;;;;8.37;7.57;;;2.60;99.90;;;;;;5072616;28;20252;-50
2022/04/01 10:38:15;;;;;;;8.10;7.37;;;2.80;99.90;;;;;;5042494;28;20272;-50
2022/04/01 10:40:46;;;;;;;8.50;7.70;;;3.00;99.90;;;;;;5032603;28;20253;-50
2022/04/01 10:43:18;;;;;;;9.20;8.23;;;3.00;99.90;;;;;;5032299;28;20263;-50
2022/04/01 10:46:01;;;;;;;8.73;7.83;;;3.00;99.90;;;;;;5049639;28;20647;-50
2022/04/01 10:54:43;;;;;;;10.50;8.13;;;3.00;99.90;;;;;;5031643;28;20567;-50
2022/04/01 10:57:14;;;;;;;8.90;7.73;;;2.60;99.90;;;;;;5032261;28;20321;-50
2022/04/01 10:59:45;;;;;;;10.03;8.50;;;2.70;99.90;;;;;;5032228;28;20222;-50
2022/04/01 11:02:15;;;;;;;9.90;8.90;;;2.70;99.90;;;;;;5031900;28;20255;-50
2022/04/01 11:04:45;;;;;;;9.03;8.13;;;2.70;99.90;;;;;;5032334;28;20218;-50
2022/04/01 11:07:30;;;;;;;9.30;8.40;;;2.70;99.90;;;;;;5030278;28;20211;-50
2022/04/01 11:10:00;;;;;;;9.70;8.70;;;2.60;99.90;;;;;;5048551;28;20229;-49
2022/04/01 11:12:30;;;;;;;9.17;7.97;;;2.60;99.90;;;;;;5051683;28;20221;-50
2022/04/01 11:15:28;;;;;;;10.53;8.83;;;2.60;99.90;;;;;;5051654;28;20283;-50
2022/04/01 11:18:14;;;;;;;9.80;8.80;;;2.60;99.90;;;;;;5038771;28;20214;-50
2022/04/01 11:20:56;;;;;;;11.67;9.60;;;2.60;99.90;;;;;;5051758;28;20231;-50
2022/04/01 11:23:24;;;;;;;15.43;12.40;;;2.60;99.90;;;;;;5050108;28;20213;-49
2022/04/01 11:25:58;;;;;;;10.33;9.33;;;2.50;99.90;;;;;;5051618;28;20740;-50
2022/04/01 11:28:29;;;;;;;11.03;9.93;;;2.60;99.90;;;;;;5051579;28;20219;-50
2022/04/01 11:31:16;;;;;;;10.20;9.20;;;2.50;99.90;;;;;;5037570;28;20267;-50
2022/04/01 11:34:01;;;;;;;10.63;9.40;;;2.50;99.90;;;;;;5029919;28;20706;-49
2022/04/01 11:36:30;;;;;;;10.60;9.57;;;2.50;99.90;;;;;;5030880;28;20247;-50
2022/04/01 11:39:00;;;;;;;10.23;9.13;;;2.50;99.90;;;;;;5030581;28;20232;-50
2022/04/01 11:41:49;;;;;;;11.50;10.40;;;2.50;99.90;;;;;;5031665;28;20201;-50
2022/04/01 11:44:18;;;;;;;9.93;8.97;;;2.40;99.90;;;;;;5029373;28;20202;-50
2022/04/01 11:46:52;;;;;;;10.50;9.50;;;2.50;99.90;;;;;;5033879;28;20264;-50
2022/04/01 11:49:26;;;;;;;10.80;9.67;;;2.50;99.90;;;;;;5070948;28;20226;-50
2022/04/01 11:51:54;;;;;;;11.60;10.50;;;2.60;99.90;;;;;;5037101;28;20206;-50
2022/04/01 11:54:22;;;;;;;11.67;10.47;;;2.50;99.90;;;;;;5031493;28;20222;-50
2022/04/01 11:56:54;;;;;;;10.63;9.53;;;2.30;99.90;;;;;;5031140;28;20210;-50
2022/04/01 11:59:25;;;;;;;9.87;8.87;;;2.20;99.90;;;;;;5036743;28;20224;-50
2022/04/01 12:01:58;;;;;;;13.43;9.30;;;2.20;99.90;;;;;;5050788;28;20545;-51
2022/04/01 12:04:32;;;;;;;11.83;10.30;;;2.30;99.90;;;;;;5045121;28;20249;-49
2022/04/01 12:09:56;;;;;;;12.20;9.73;;;2.20;99.90;;;;;;5047632;28;20221;-50
2022/04/01 12:12:25;;;;;;;10.70;9.63;;;2.30;99.90;;;;;;5040694;28;20205;-50
2022/04/01 12:14:56;;;;;;;11.23;9.60;;;2.20;99.90;;;;;;5030294;28;20240;-49
2022/04/01 12:17:30;;;;;;;11.43;10.30;;;2.10;99.90;;;;;;5040452;28;20204;-50
2022/04/01 12:20:12;;;;;;;11.17;9.83;;;2.10;99.90;;;;;;5046207;28;20253;-49
2022/04/01 12:22:58;;;;;;;10.60;9.50;;;2.20;99.90;;;;;;5041252;28;20207;-50
2022/04/01 12:25:28;;;;;;;11.17;10.13;;;2.10;99.90;;;;;;5050024;28;20666;-50
2022/04/01 12:27:59;;;;;;;11.10;10.00;;;2.20;99.90;;;;;;5049057;28;20256;-49
2022/04/01 12:30:30;;;;;;;11.43;10.30;;;2.10;99.90;;;;;;5049912;28;20233;-49
2022/04/01 12:33:01;;;;;;;11.23;8.33;;;2.20;99.90;;;;;;5050412;28;20249;-49
2022/04/01 12:35:30;;;;;;;10.70;9.60;;;2.30;99.90;;;;;;5053106;28;20701;-49
2022/04/01 12:38:08;;;;;;;11.87;10.70;;;2.40;99.90;;;;;;5054044;28;20700;-49
2022/04/01 12:40:51;;;;;;;12.93;10.90;;;2.20;99.90;;;;;;5052873;28;20791;-49
2022/04/01 12:43:30;;;;;;;11.20;9.77;;;2.20;99.90;;;;;;5054321;28;20254;-50
2022/04/01 12:45:59;;;;;;;13.27;11.90;;;2.30;99.90;;;;;;5054922;28;20211;-50
2022/04/01 12:48:30;;;;;;;11.07;10.00;;;2.20;99.90;;;;;;5054298;28;20278;-50
2022/04/01 12:51:04;;;;;;;12.50;11.23;;;2.30;99.90;;;;;;5054357;28;20209;-50
2022/04/01 12:53:32;;;;;;;12.07;10.63;;;2.30;99.90;;;;;;5053401;28;20264;-50
2022/04/01 12:56:17;;;;;;;12.20;10.87;;;2.20;99.90;;;;;;5054450;28;20216;-50
2022/04/01 12:58:50;;;;;;;12.37;10.63;;;2.40;99.90;;;;;;5060746;28;20204;-50
2022/04/01 13:01:24;;;;;;;11.67;10.57;;;2.30;99.90;;;;;;5054365;28;20209;-50
2022/04/01 13:03:55;;;;;;;12.33;10.17;;;2.30;99.90;;;;;;5053834;28;20202;-49
2022/04/01 13:06:25;;;;;;;11.10;9.90;;;2.20;99.90;;;;;;5054670;28;20208;-49
2022/04/01 13:09:00;;;;;;;13.10;11.10;;;2.30;99.90;;;;;;5054603;28;20236;-50
2022/04/01 13:11:43;;;;;;;16.13;10.07;;;2.30;99.90;;;;;;5054617;28;20271;-50
2022/04/01 13:14:22;;;;;;;11.20;9.67;;;2.20;99.90;;;;;;5034693;28;20200;-50
2022/04/01 13:16:52;;;;;;;11.17;9.80;;;2.20;99.90;;;;;;5034460;28;20206;-49
2022/04/01 13:19:26;;;;;;;11.43;10.20;;;2.30;99.90;;;;;;5034875;28;20656;-49
2022/04/01 13:21:56;;;;;;;11.30;9.20;;;2.40;99.90;;;;;;5032991;28;20262;-49
2022/04/01 13:24:26;;;;;;;9.77;8.77;;;2.40;99.90;;;;;;5034362;28;20713;-50